Time;durP1;ratioP1;P1;durP2;ratioP2;P2;SDS_P1;SDS_P2;PMS_P1;PMS_P2;Temp;Humidity;BMP_temperature;BMP_pressure;BME280_temperature;BME280_humidity;BME280_pressure;Samples;Min_cycle;Max_cycle;Signal;HPM_P1;HPM_P2
2023/09/13 00:01:48;;;;;;;12.57;3.10;;;18.60;99.90;;;;;;5157242;27;20042;-76
2023/09/13 00:04:14;;;;;;;11.40;4.17;;;18.60;99.90;;;;;;5138317;27;20047;-77
2023/09/13 00:06:40;;;;;;;14.40;3.50;;;18.60;99.90;;;;;;5138713;27;20045;-76
2023/09/13 00:09:09;;;;;;;12.27;3.00;;;18.60;99.90;;;;;;5138411;27;20125;-77
2023/09/13 00:11:37;;;;;;;9.40;2.50;;;18.60;99.90;;;;;;5157050;27;20404;-76
2023/09/13 00:14:03;;;;;;;9.00;2.70;;;18.60;99.90;;;;;;5156695;27;20050;-77
2023/09/13 00:16:29;;;;;;;9.37;3.37;;;18.60;99.90;;;;;;5156965;27;20046;-76
2023/09/13 00:18:55;;;;;;;14.20;3.57;;;18.50;99.90;;;;;;5156863;27;20054;-76
2023/09/13 00:21:21;;;;;;;10.23;3.47;;;18.50;99.90;;;;;;5121458;27;20521;-76
2023/09/13 00:23:47;;;;;;;13.83;3.10;;;18.50;99.90;;;;;;5156879;27;20061;-76
2023/09/13 00:26:14;;;;;;;11.60;3.37;;;18.50;99.90;;;;;;5138163;27;20050;-76
2023/09/13 00:28:40;;;;;;;10.23;2.83;;;18.40;99.90;;;;;;5156911;27;20042;-76
2023/09/13 00:31:09;;;;;;;9.83;2.43;;;18.40;99.90;;;;;;5137991;27;20402;-77
2023/09/13 00:33:35;;;;;;;12.67;3.27;;;18.40;99.90;;;;;;5156636;27;20083;-76
2023/09/13 00:36:00;;;;;;;9.50;2.90;;;18.40;99.90;;;;;;5156388;27;20051;-77
2023/09/13 00:38:26;;;;;;;12.60;3.33;;;18.40;99.90;;;;;;5138304;27;20047;-76
2023/09/13 00:40:52;;;;;;;9.03;2.70;;;18.40;99.90;;;;;;5156491;27;20095;-76
2023/09/13 00:43:18;;;;;;;9.23;2.70;;;18.40;99.90;;;;;;5137145;27;20073;-76
2023/09/13 00:45:46;;;;;;;7.70;2.70;;;18.40;99.90;;;;;;5155881;27;20146;-75
2023/09/13 00:48:13;;;;;;;8.43;3.13;;;18.30;99.90;;;;;;5156148;27;20076;-76
2023/09/13 00:50:40;;;;;;;11.03;2.90;;;18.40;99.90;;;;;;5138024;27;20118;-77
2023/09/13 00:53:08;;;;;;;12.27;3.57;;;18.30;99.90;;;;;;5103210;27;20039;-77
2023/09/13 00:55:34;;;;;;;9.77;3.13;;;18.30;99.90;;;;;;5137389;27;20051;-76
2023/09/13 00:58:01;;;;;;;10.50;2.90;;;18.30;99.90;;;;;;5135457;27;20142;-76
2023/09/13 01:00:27;;;;;;;9.37;3.37;;;18.30;99.90;;;;;;5156253;27;20050;-76
2023/09/13 01:02:54;;;;;;;11.73;3.00;;;18.30;99.90;;;;;;5156157;27;20091;-76
2023/09/13 01:05:20;;;;;;;11.73;3.20;;;18.30;99.90;;;;;;5120069;27;20084;-77
2023/09/13 01:07:48;;;;;;;9.67;2.73;;;18.30;99.90;;;;;;5137671;27;20047;-76
2023/09/13 01:10:14;;;;;;;14.53;3.07;;;18.30;99.90;;;;;;5157467;27;20050;-76
2023/09/13 01:12:40;;;;;;;7.60;2.33;;;18.30;99.90;;;;;;5137964;27;20380;-76
2023/09/13 01:15:07;;;;;;;6.77;2.70;;;18.20;99.90;;;;;;5137283;27;20054;-76
2023/09/13 01:17:57;;;;;;;10.97;3.07;;;18.30;99.90;;;;;;5155747;27;20129;-76
2023/09/13 01:20:44;;;;;;;11.40;2.40;;;18.20;99.90;;;;;;5120149;27;20462;-76
2023/09/13 01:23:10;;;;;;;10.67;3.37;;;18.20;99.90;;;;;;5155424;27;20082;-76
2023/09/13 01:26:18;;;;;;;10.20;2.73;;;18.20;99.90;;;;;;5155603;27;20053;-76
2023/09/13 01:28:47;;;;;;;11.53;2.77;;;18.20;99.90;;;;;;5155493;27;20054;-76
2023/09/13 01:31:17;;;;;;;11.23;2.93;;;18.20;99.90;;;;;;5137098;27;20491;-76
2023/09/13 01:33:44;;;;;;;10.67;3.03;;;18.10;99.90;;;;;;5155527;27;20043;-76
2023/09/13 01:36:10;;;;;;;13.00;2.20;;;18.20;99.90;;;;;;5119666;27;20133;-76
2023/09/13 01:38:36;;;;;;;9.47;3.10;;;18.10;99.90;;;;;;5155379;27;20129;-76
2023/09/13 01:41:13;;;;;;;7.70;2.27;;;18.10;99.90;;;;;;5155262;27;20500;-76
2023/09/13 01:43:41;;;;;;;12.10;2.67;;;18.10;99.90;;;;;;5136845;27;20470;-76
2023/09/13 01:46:08;;;;;;;8.10;2.30;;;18.10;99.90;;;;;;5154953;27;20049;-75
2023/09/13 01:48:36;;;;;;;12.73;2.70;;;18.00;99.90;;;;;;5136867;27;20078;-76
2023/09/13 01:51:02;;;;;;;13.20;2.80;;;18.10;99.90;;;;;;5155122;27;20129;-76
2023/09/13 01:53:28;;;;;;;11.20;2.50;;;18.00;99.90;;;;;;5136432;27;20042;-76
2023/09/13 01:55:54;;;;;;;9.17;2.93;;;18.00;99.90;;;;;;5136547;27;20042;-76
2023/09/13 01:58:20;;;;;;;12.27;2.90;;;18.00;99.90;;;;;;5155100;27;20413;-76
2023/09/13 02:00:46;;;;;;;10.10;2.50;;;18.00;99.90;;;;;;5136571;27;20054;-76
2023/09/13 02:03:12;;;;;;;9.00;2.73;;;17.90;99.90;;;;;;5154610;27;20039;-76
2023/09/13 02:05:38;;;;;;;10.90;2.90;;;18.00;99.90;;;;;;5136493;27;20451;-76
2023/09/13 02:08:04;;;;;;;9.37;2.50;;;18.00;99.90;;;;;;5154403;27;20084;-76
2023/09/13 02:10:30;;;;;;;10.60;2.60;;;18.00;99.90;;;;;;5154503;27;20408;-76
2023/09/13 02:12:58;;;;;;;10.20;3.07;;;17.90;99.90;;;;;;5154831;27;20043;-76
2023/09/13 02:15:24;;;;;;;11.47;2.20;;;17.90;99.90;;;;;;5154469;27;20051;-76
2023/09/13 02:17:49;;;;;;;9.67;2.50;;;17.90;99.90;;;;;;5119392;27;20050;-77
2023/09/13 02:20:15;;;;;;;9.80;3.23;;;17.90;99.90;;;;;;5154435;27;20078;-77
2023/09/13 02:22:41;;;;;;;10.33;3.03;;;17.90;99.90;;;;;;5154646;27;20478;-77
2023/09/13 02:25:07;;;;;;;11.40;2.77;;;17.90;99.90;;;;;;5154630;27;20038;-77
2023/09/13 02:27:34;;;;;;;9.83;2.87;;;17.80;99.90;;;;;;5154419;27;20088;-77
2023/09/13 02:30:00;;;;;;;10.50;2.33;;;17.80;99.90;;;;;;5154615;27;20042;-77
2023/09/13 02:32:26;;;;;;;11.10;3.13;;;17.80;99.90;;;;;;5136007;27;20042;-76
2023/09/13 02:34:52;;;;;;;8.70;2.50;;;17.80;99.90;;;;;;5136183;27;20100;-77
2023/09/13 02:37:18;;;;;;;12.57;2.40;;;17.80;99.90;;;;;;5135967;27;20487;-77
2023/09/13 02:39:45;;;;;;;10.20;2.63;;;17.80;99.90;;;;;;5136213;27;20063;-77
2023/09/13 02:42:10;;;;;;;9.43;2.43;;;17.70;99.90;;;;;;5154302;27;20127;-77
2023/09/13 02:44:38;;;;;;;9.67;2.20;;;17.70;99.90;;;;;;5154127;27;20129;-76
2023/09/13 02:47:04;;;;;;;9.87;2.13;;;17.80;99.90;;;;;;5136147;27;20111;-76
2023/09/13 02:49:31;;;;;;;6.87;2.13;;;17.70;99.90;;;;;;5135818;27;20055;-76
2023/09/13 02:51:57;;;;;;;9.73;3.27;;;17.70;99.90;;;;;;5154351;27;20091;-77
2023/09/13 02:54:23;;;;;;;9.93;2.50;;;17.70;99.90;;;;;;5135607;27;20038;-76
2023/09/13 02:56:49;;;;;;;10.63;2.50;;;17.70;99.90;;;;;;5118561;27;20053;-77
2023/09/13 02:59:15;;;;;;;7.67;2.40;;;17.60;99.90;;;;;;5135677;27;20043;-77
2023/09/13 03:01:44;;;;;;;7.70;2.10;;;17.60;99.90;;;;;;5136032;27;20066;-76
2023/09/13 03:04:11;;;;;;;8.93;2.60;;;17.60;99.90;;;;;;5156220;27;20042;-76
2023/09/13 03:06:39;;;;;;;8.13;2.33;;;17.50;99.90;;;;;;5135767;27;20056;-77
2023/09/13 03:09:05;;;;;;;11.97;3.03;;;17.50;99.90;;;;;;5135534;27;20043;-79
2023/09/13 03:11:31;;;;;;;7.70;2.90;;;17.40;99.90;;;;;;5153939;27;20473;-80
2023/09/13 03:13:56;;;;;;;8.43;2.50;;;17.30;99.90;;;;;;5135952;27;20431;-76
2023/09/13 03:16:23;;;;;;;11.40;3.07;;;17.20;99.90;;;;;;5153740;27;20043;-76
2023/09/13 03:18:58;;;;;;;7.10;2.30;;;17.00;99.90;;;;;;5135397;27;20399;-76
2023/09/13 03:21:24;;;;;;;11.37;3.07;;;16.90;99.90;;;;;;5156864;27;20054;-75
2023/09/13 03:23:50;;;;;;;9.03;2.77;;;16.80;99.90;;;;;;5157857;27;20121;-74
2023/09/13 03:26:21;;;;;;;8.00;2.97;;;16.70;99.90;;;;;;5157881;27;20132;-74
2023/09/13 03:28:55;;;;;;;8.17;2.97;;;16.70;99.90;;;;;;5139935;27;20050;-73
2023/09/13 03:31:23;;;;;;;12.18;3.72;;;16.60;99.90;;;;;;5157590;27;20050;-73
2023/09/13 03:33:51;;;;;;;14.40;3.67;;;16.60;99.90;;;;;;5157856;27;20051;-72
2023/09/13 03:36:17;;;;;;;11.23;3.70;;;16.50;99.90;;;;;;5157645;27;20510;-72
2023/09/13 03:38:44;;;;;;;12.37;3.83;;;16.50;99.90;;;;;;5157305;27;20150;-72
2023/09/13 03:41:16;;;;;;;11.63;3.90;;;16.40;99.90;;;;;;5157585;27;20046;-72
2023/09/13 03:43:41;;;;;;;8.63;3.63;;;16.40;99.90;;;;;;5121301;27;20043;-72
2023/09/13 03:46:08;;;;;;;16.20;3.93;;;16.50;99.90;;;;;;5139063;27;20050;-72
2023/09/13 03:48:36;;;;;;;10.63;4.43;;;16.40;99.90;;;;;;5157135;27;20065;-73
2023/09/13 03:51:03;;;;;;;13.47;4.33;;;16.40;99.90;;;;;;5139168;27;20133;-73
2023/09/13 03:53:29;;;;;;;10.97;3.77;;;16.30;99.90;;;;;;5157069;27;20043;-73
2023/09/13 03:55:55;;;;;;;13.47;3.87;;;16.30;99.90;;;;;;5157240;27;20042;-73
2023/09/13 03:58:21;;;;;;;16.33;3.50;;;16.30;99.90;;;;;;5138513;27;20050;-74
2023/09/13 04:00:47;;;;;;;12.17;4.03;;;16.30;99.90;;;;;;5157306;27;20051;-74
2023/09/13 04:03:14;;;;;;;7.43;3.30;;;16.30;99.90;;;;;;5157087;27;20604;-72
2023/09/13 04:05:40;;;;;;;8.57;2.97;;;16.20;99.90;;;;;;5156891;27;20087;-71
2023/09/13 04:08:06;;;;;;;12.23;2.90;;;16.20;99.90;;;;;;5157244;27;20074;-72
2023/09/13 04:10:32;;;;;;;10.83;2.63;;;16.20;99.90;;;;;;5138358;27;20068;-70
2023/09/13 04:12:57;;;;;;;8.80;2.57;;;16.10;99.90;;;;;;5157025;27;20045;-70
2023/09/13 04:15:23;;;;;;;10.20;2.17;;;16.00;99.90;;;;;;5156731;27;20054;-70
2023/09/13 04:17:49;;;;;;;11.13;2.67;;;15.90;99.90;;;;;;5121567;27;20053;-71
2023/09/13 04:20:15;;;;;;;11.30;2.80;;;;;;;;;;5138677;27;20050;-70
2023/09/13 04:22:41;;;;;;;14.30;2.70;;;15.80;99.90;;;;;;5156498;27;20064;-71
2023/09/13 04:25:08;;;;;;;11.17;3.03;;;15.70;99.90;;;;;;5156858;27;20042;-72
2023/09/13 04:27:34;;;;;;;13.17;2.40;;;15.60;99.90;;;;;;5156508;27;20038;-71
2023/09/13 04:29:59;;;;;;;9.87;2.37;;;15.60;99.90;;;;;;5156668;27;20050;-71
2023/09/13 04:32:25;;;;;;;10.03;2.20;;;15.60;99.90;;;;;;5156116;27;20122;-71
2023/09/13 04:34:51;;;;;;;11.47;2.90;;;15.50;99.90;;;;;;5138600;27;20129;-71
2023/09/13 04:37:17;;;;;;;11.30;3.10;;;15.40;99.90;;;;;;5156577;27;20038;-71
2023/09/13 04:39:43;;;;;;;10.30;2.60;;;15.40;99.90;;;;;;5156194;27;20041;-71
2023/09/13 04:42:10;;;;;;;9.90;3.20;;;15.40;99.90;;;;;;5156290;27;20125;-71
2023/09/13 04:44:35;;;;;;;10.43;2.90;;;15.30;99.90;;;;;;5156148;27;20394;-71
2023/09/13 04:47:01;;;;;;;8.50;2.13;;;15.30;99.90;;;;;;5138165;27;20050;-70
2023/09/13 04:49:27;;;;;;;9.10;2.57;;;15.30;99.90;;;;;;5156119;27;20047;-70
2023/09/13 04:51:54;;;;;;;11.13;2.60;;;15.30;99.90;;;;;;5156301;27;20049;-70
2023/09/13 04:54:22;;;;;;;14.57;2.83;;;15.30;99.90;;;;;;5156253;27;20052;-71
2023/09/13 04:56:48;;;;;;;10.50;2.80;;;15.20;99.90;;;;;;5155646;27;20911;-72
2023/09/13 04:59:15;;;;;;;8.37;2.93;;;15.20;99.90;;;;;;5156106;27;20051;-72
2023/09/13 05:01:40;;;;;;;12.33;2.67;;;15.20;99.90;;;;;;5155472;27;20494;-73
2023/09/13 05:04:06;;;;;;;11.47;3.27;;;15.10;99.90;;;;;;5137202;27;20130;-72
2023/09/13 05:06:32;;;;;;;14.00;2.57;;;15.10;99.90;;;;;;5155782;27;20043;-72
2023/09/13 05:08:58;;;;;;;14.07;3.40;;;15.10;99.90;;;;;;5155924;27;20050;-72
2023/09/13 05:11:24;;;;;;;14.27;3.03;;;15.10;99.90;;;;;;5155926;27;20042;-72
2023/09/13 05:14:07;;;;;;;11.50;3.40;;;15.10;99.90;;;;;;5155651;27;20046;-71
2023/09/13 05:16:32;;;;;;;11.60;3.10;;;15.10;99.90;;;;;;5155748;27;20089;-71
2023/09/13 05:18:58;;;;;;;13.37;2.77;;;15.10;99.90;;;;;;5155779;27;20081;-72
2023/09/13 05:21:24;;;;;;;10.57;2.90;;;15.10;99.90;;;;;;5155650;27;20047;-72
2023/09/13 05:23:49;;;;;;;15.50;3.00;;;15.00;99.90;;;;;;5136902;27;20080;-71
2023/09/13 05:26:15;;;;;;;15.17;3.07;;;15.00;99.90;;;;;;5120478;27;20078;-71
2023/09/13 05:28:41;;;;;;;12.70;3.23;;;15.10;99.90;;;;;;5155400;27;20055;-71
2023/09/13 05:31:07;;;;;;;15.47;4.10;;;15.10;99.90;;;;;;5155446;27;20077;-70
2023/09/13 05:33:33;;;;;;;13.43;3.80;;;15.00;99.90;;;;;;5155309;27;20038;-71
2023/09/13 05:35:59;;;;;;;9.37;2.63;;;15.00;99.90;;;;;;5155491;27;20078;-71
2023/09/13 05:38:25;;;;;;;15.90;3.90;;;14.90;99.90;;;;;;5136969;27;20081;-70
2023/09/13 05:40:51;;;;;;;15.00;3.20;;;14.80;99.90;;;;;;5155109;27;20035;-71
2023/09/13 05:43:17;;;;;;;10.87;3.33;;;14.80;99.90;;;;;;5154578;27;20479;-71
2023/09/13 05:45:42;;;;;;;14.87;3.10;;;14.70;99.90;;;;;;5154939;27;20057;-70
2023/09/13 05:48:08;;;;;;;11.43;3.87;;;14.60;99.90;;;;;;5155166;27;20078;-70
2023/09/13 05:50:34;;;;;;;14.07;3.33;;;14.60;99.90;;;;;;5136852;27;20047;-71
2023/09/13 05:52:59;;;;;;;19.63;3.90;;;14.60;99.90;;;;;;5155077;27;20038;-71
2023/09/13 05:55:25;;;;;;;22.60;5.23;;;14.60;99.90;;;;;;5136517;27;20089;-71
2023/09/13 05:57:51;;;;;;;14.53;4.23;;;14.60;99.90;;;;;;5154324;27;20086;-70
2023/09/13 06:00:18;;;;;;;13.33;4.93;;;14.60;99.90;;;;;;5155065;27;20095;-71
2023/09/13 06:02:44;;;;;;;11.63;4.13;;;14.60;99.90;;;;;;5154626;27;20439;-70
2023/09/13 06:05:10;;;;;;;18.03;4.30;;;14.50;99.90;;;;;;5155262;27;20042;-70
2023/09/13 06:07:37;;;;;;;17.37;4.00;;;14.50;99.90;;;;;;5154819;27;20541;-70
2023/09/13 06:10:06;;;;;;;18.00;4.43;;;14.50;99.90;;;;;;5155053;27;20050;-71
2023/09/13 06:12:32;;;;;;;15.67;3.87;;;14.50;99.90;;;;;;5136546;27;20042;-71
2023/09/13 06:14:59;;;;;;;17.73;4.53;;;14.50;99.90;;;;;;5154502;27;20042;-71
2023/09/13 06:17:25;;;;;;;23.07;4.07;;;14.50;99.90;;;;;;5154809;27;20417;-71
2023/09/13 06:19:51;;;;;;;13.23;3.30;;;14.50;99.90;;;;;;5154469;27;20039;-71
2023/09/13 06:22:17;;;;;;;25.37;4.70;;;14.50;99.90;;;;;;5154846;27;20070;-71
2023/09/13 06:24:44;;;;;;;18.63;4.30;;;14.50;99.90;;;;;;5154451;27;20426;-71
2023/09/13 06:27:10;;;;;;;12.20;3.67;;;14.50;99.90;;;;;;5154632;27;20065;-70
2023/09/13 06:29:35;;;;;;;17.13;4.60;;;14.50;99.90;;;;;;5154591;27;20272;-71
2023/09/13 06:32:03;;;;;;;19.90;4.17;;;14.50;99.90;;;;;;5154268;27;20055;-71
2023/09/13 06:34:29;;;;;;;15.07;4.30;;;14.50;99.90;;;;;;5136317;27;20134;-71
2023/09/13 06:36:55;;;;;;;20.80;4.60;;;14.50;99.90;;;;;;5135978;27;20288;-71
2023/09/13 06:39:21;;;;;;;13.30;3.67;;;14.50;99.90;;;;;;5154668;27;20404;-71
2023/09/13 06:41:47;;;;;;;15.43;3.93;;;14.50;99.90;;;;;;5154191;27;20049;-71
2023/09/13 06:44:14;;;;;;;19.23;3.63;;;14.50;99.90;;;;;;5154396;27;20288;-71
2023/09/13 06:46:41;;;;;;;16.13;4.07;;;14.50;99.90;;;;;;5154455;27;20039;-70
2023/09/13 06:49:06;;;;;;;13.73;3.30;;;14.60;99.90;;;;;;5154442;27;20173;-71
2023/09/13 06:51:32;;;;;;;15.27;3.60;;;14.60;99.90;;;;;;5154635;27;20051;-71
2023/09/13 06:53:58;;;;;;;15.70;4.33;;;14.60;99.90;;;;;;5154590;27;20042;-71
2023/09/13 06:56:24;;;;;;;15.47;3.23;;;14.60;99.90;;;;;;5140101;27;20383;-71
2023/09/13 06:58:50;;;;;;;12.23;3.23;;;14.70;99.90;;;;;;5157884;27;20509;-71
2023/09/13 07:01:16;;;;;;;14.77;3.20;;;14.60;99.90;;;;;;5158623;27;20127;-71
2023/09/13 07:03:41;;;;;;;12.27;2.67;;;14.70;99.90;;;;;;5140127;27;20494;-72
2023/09/13 07:06:07;;;;;;;11.03;3.07;;;14.70;99.90;;;;;;5139572;27;20049;-71
2023/09/13 07:08:33;;;;;;;16.60;3.57;;;14.70;99.90;;;;;;5158494;27;20039;-72
2023/09/13 07:10:59;;;;;;;12.57;2.87;;;14.80;99.90;;;;;;5139546;27;20101;-71
2023/09/13 07:13:26;;;;;;;15.00;3.00;;;14.80;99.90;;;;;;5105389;27;20494;-72
2023/09/13 07:15:52;;;;;;;9.87;2.20;;;14.80;99.90;;;;;;5157978;27;20118;-71
2023/09/13 07:18:17;;;;;;;11.20;3.13;;;14.80;99.90;;;;;;5139737;27;20129;-72
2023/09/13 07:20:43;;;;;;;13.70;3.30;;;14.80;99.90;;;;;;5158201;27;20471;-72
2023/09/13 07:23:09;;;;;;;9.33;2.20;;;14.80;99.90;;;;;;5157655;27;20091;-72
2023/09/13 07:25:35;;;;;;;7.07;2.20;;;14.80;99.90;;;;;;5157983;27;20134;-73
2023/09/13 07:28:00;;;;;;;10.50;2.60;;;14.80;99.90;;;;;;5157717;27;20107;-74
2023/09/13 07:30:27;;;;;;;9.23;2.17;;;14.80;99.90;;;;;;5139516;27;20045;-74
2023/09/13 07:32:53;;;;;;;11.70;2.60;;;14.80;99.90;;;;;;5139316;27;20384;-74
2023/09/13 07:35:20;;;;;;;9.53;2.23;;;14.80;99.90;;;;;;5157811;27;20046;-73
2023/09/13 07:37:47;;;;;;;9.13;2.40;;;14.80;99.90;;;;;;5157775;27;20050;-73
2023/09/13 07:40:13;;;;;;;12.40;2.80;;;14.80;99.90;;;;;;5157662;27;20129;-73
2023/09/13 07:42:38;;;;;;;7.70;2.07;;;14.80;99.90;;;;;;5139078;27;20192;-73
2023/09/13 07:45:05;;;;;;;8.07;2.20;;;14.90;99.90;;;;;;5157321;27;20151;-73
2023/09/13 07:47:31;;;;;;;11.13;2.63;;;14.90;99.90;;;;;;5157588;27;20049;-72
2023/09/13 07:49:59;;;;;;;12.73;2.87;;;15.00;99.90;;;;;;5157269;27;20121;-72
2023/09/13 07:52:25;;;;;;;9.93;3.70;;;15.10;99.90;;;;;;5138881;27;20107;-73
2023/09/13 07:54:51;;;;;;;10.93;2.40;;;15.30;99.90;;;;;;5157127;27;20082;-73
2023/09/13 07:57:18;;;;;;;9.53;2.40;;;15.40;99.90;;;;;;5157693;27;20047;-73
2023/09/13 07:59:43;;;;;;;11.80;2.37;;;15.50;99.90;;;;;;5157388;27;20069;-71
2023/09/13 08:02:09;;;;;;;9.77;2.60;;;15.60;99.90;;;;;;5138344;27;20146;-73
2023/09/13 08:04:35;;;;;;;6.77;2.20;;;15.60;99.90;;;;;;5157310;27;20041;-73
2023/09/13 08:07:02;;;;;;;11.60;2.23;;;15.70;99.90;;;;;;5156203;27;20054;-73
2023/09/13 08:09:28;;;;;;;10.17;2.73;;;15.70;99.90;;;;;;5157167;27;20042;-74
2023/09/13 08:11:53;;;;;;;12.27;2.80;;;15.60;99.90;;;;;;5138659;27;20053;-73
2023/09/13 08:14:19;;;;;;;12.40;2.73;;;15.60;99.90;;;;;;5157082;27;20490;-73
2023/09/13 08:16:45;;;;;;;10.17;2.90;;;15.60;99.90;;;;;;5157082;27;20482;-74
2023/09/13 08:19:12;;;;;;;9.10;2.30;;;15.60;99.90;;;;;;5156694;27;20442;-73
2023/09/13 08:21:38;;;;;;;7.97;2.57;;;15.70;99.90;;;;;;5138846;27;20043;-73
2023/09/13 08:24:04;;;;;;;13.50;2.70;;;15.70;99.90;;;;;;5156537;27;20043;-74
2023/09/13 08:26:30;;;;;;;9.80;3.20;;;15.80;99.90;;;;;;5156437;27;20513;-73
2023/09/13 08:28:57;;;;;;;13.07;3.27;;;15.80;99.90;;;;;;5156418;27;20534;-74
2023/09/13 08:31:24;;;;;;;13.40;2.60;;;15.90;99.90;;;;;;5156707;27;20502;-73
2023/09/13 08:33:51;;;;;;;11.20;2.30;;;15.90;99.90;;;;;;5156850;27;20058;-74
2023/09/13 08:36:19;;;;;;;8.20;2.43;;;15.90;99.90;;;;;;5156390;27;20193;-73
2023/09/13 08:38:45;;;;;;;10.50;2.53;;;15.70;99.90;;;;;;5121089;27;20038;-73
2023/09/13 08:41:14;;;;;;;9.53;2.80;;;15.60;99.90;;;;;;5156329;27;20517;-73
2023/09/13 08:43:40;;;;;;;9.20;3.03;;;15.60;99.90;;;;;;5156549;27;20042;-73
2023/09/13 08:46:07;;;;;;;14.73;3.83;;;15.50;99.90;;;;;;5137782;27;20034;-75
2023/09/13 08:48:34;;;;;;;14.47;3.10;;;15.40;99.90;;;;;;5121080;27;20046;-74
2023/09/13 08:51:02;;;;;;;12.13;3.13;;;15.40;99.90;;;;;;5156158;27;20051;-71
2023/09/13 08:53:31;;;;;;;13.40;3.13;;;15.40;99.90;;;;;;5156259;27;20050;-72
2023/09/13 08:55:59;;;;;;;11.43;2.80;;;15.40;99.90;;;;;;5155892;27;20089;-74
2023/09/13 08:58:26;;;;;;;12.87;3.73;;;15.40;99.90;;;;;;5156018;27;20053;-73
2023/09/13 09:00:53;;;;;;;15.13;3.50;;;15.50;99.90;;;;;;5138012;27;20451;-73
2023/09/13 09:03:23;;;;;;;12.97;3.53;;;15.50;99.90;;;;;;5155846;27;20090;-73
2023/09/13 09:05:50;;;;;;;12.40;3.70;;;15.60;99.90;;;;;;5156221;27;20054;-73
2023/09/13 09:08:17;;;;;;;13.57;4.37;;;15.60;99.90;;;;;;5137306;27;20042;-72
2023/09/13 09:10:44;;;;;;;13.63;4.33;;;15.70;99.90;;;;;;5156138;27;20047;-73
2023/09/13 09:13:11;;;;;;;14.13;4.23;;;15.80;99.90;;;;;;5155243;27;20069;-72
2023/09/13 09:15:39;;;;;;;11.80;3.40;;;15.80;99.90;;;;;;5155801;27;20047;-72
2023/09/13 09:18:09;;;;;;;12.23;3.70;;;15.80;99.90;;;;;;5154434;27;20073;-72
2023/09/13 09:20:38;;;;;;;15.13;3.77;;;15.70;99.90;;;;;;5155882;27;20043;-73
2023/09/13 09:23:06;;;;;;;12.70;4.07;;;15.60;99.90;;;;;;5155081;27;20046;-73
2023/09/13 09:25:32;;;;;;;15.83;4.03;;;15.60;99.90;;;;;;5155769;27;20043;-73
2023/09/13 09:27:57;;;;;;;13.87;4.23;;;15.50;99.90;;;;;;5155635;27;20121;-72
2023/09/13 09:30:33;;;;;;;13.47;4.53;;;15.40;99.90;;;;;;5155291;27;20050;-72
2023/09/13 09:33:08;;;;;;;10.30;3.60;;;15.40;99.90;;;;;;5137102;27;20053;-72
2023/09/13 09:35:35;;;;;;;11.95;3.78;;;15.40;99.90;;;;;;5155477;27;20091;-71
2023/09/13 09:38:01;;;;;;;8.40;3.60;;;15.30;99.90;;;;;;5154930;27;20042;-72
2023/09/13 09:40:38;;;;;;;9.57;3.53;;;15.40;99.90;;;;;;5090290;28;20419;-72
2023/09/13 09:43:03;;;;;;;8.70;2.90;;;15.30;99.90;;;;;;5090146;28;20131;-72
2023/09/13 09:45:29;;;;;;;7.10;2.77;;;15.30;99.90;;;;;;5090165;28;20587;-72
2023/09/13 09:47:56;;;;;;;12.73;3.33;;;15.20;99.90;;;;;;5090238;28;20078;-72
2023/09/13 09:50:22;;;;;;;9.30;3.50;;;15.20;99.90;;;;;;5089827;28;20051;-72
2023/09/13 09:52:49;;;;;;;11.43;2.77;;;15.10;99.90;;;;;;5088829;28;20040;-71
2023/09/13 09:55:16;;;;;;;8.40;3.13;;;15.10;99.90;;;;;;5089548;28;20131;-71
2023/09/13 09:57:49;;;;;;;7.17;2.37;;;15.10;99.90;;;;;;5090159;28;20074;-71
2023/09/13 10:00:16;;;;;;;6.70;2.60;;;15.10;99.90;;;;;;5089598;28;20045;-73
2023/09/13 10:02:44;;;;;;;10.73;2.93;;;15.20;99.90;;;;;;5090041;28;20048;-73
2023/09/13 10:05:09;;;;;;;6.50;2.83;;;15.30;99.90;;;;;;5089592;28;20056;-73
2023/09/13 10:07:42;;;;;;;8.67;2.83;;;15.40;99.90;;;;;;5089858;28;20127;-73
2023/09/13 10:10:11;;;;;;;8.70;3.20;;;15.60;99.90;;;;;;5089550;28;20392;-73
2023/09/13 10:12:47;;;;;;;9.43;2.70;;;15.90;99.90;;;;;;5089734;28;20045;-73
2023/09/13 10:15:16;;;;;;;10.23;3.00;;;16.00;99.90;;;;;;5089013;28;20051;-72
2023/09/13 10:17:43;;;;;;;6.57;3.10;;;16.10;99.90;;;;;;5085578;28;20047;-72
2023/09/13 10:20:11;;;;;;;8.40;3.10;;;16.00;99.90;;;;;;5089264;28;20045;-73
2023/09/13 10:22:42;;;;;;;9.07;3.23;;;15.90;99.90;;;;;;5089563;28;20445;-74
2023/09/13 10:25:11;;;;;;;7.27;3.10;;;15.90;99.90;;;;;;5089312;28;20049;-74
2023/09/13 10:27:39;;;;;;;9.33;3.73;;;16.00;99.90;;;;;;5089510;28;20045;-75
2023/09/13 10:30:07;;;;;;;6.60;3.20;;;16.00;99.90;;;;;;5088409;28;20052;-75
2023/09/13 10:32:42;;;;;;;10.80;3.87;;;16.00;99.90;;;;;;5089346;28;20044;-74
2023/09/13 10:35:11;;;;;;;;;;;16.10;99.90;;;;;;5089678;28;20408;-75
2023/09/13 10:37:49;;;;;;;9.80;3.33;;;16.10;99.90;;;;;;5089292;28;19928;-73
2023/09/13 10:40:33;;;;;;;7.03;3.10;;;16.10;99.90;;;;;;5087232;28;20531;-76
2023/09/13 10:43:00;;;;;;;6.90;3.77;;;16.20;99.90;;;;;;5091703;28;20135;-74
2023/09/13 10:45:27;;;;;;;9.20;3.57;;;16.30;99.90;;;;;;5088834;28;20049;-73
2023/09/13 10:47:55;;;;;;;8.47;3.50;;;16.30;99.90;;;;;;5089064;28;20051;-74
2023/09/13 10:50:21;;;;;;;8.83;3.30;;;16.30;99.90;;;;;;5083240;28;20057;-74
2023/09/13 10:52:49;;;;;;;9.10;2.70;;;16.40;99.90;;;;;;5075690;28;20109;-74
2023/09/13 10:55:15;;;;;;;6.53;3.13;;;16.50;99.90;;;;;;5075196;28;20109;-73
2023/09/13 10:57:43;;;;;;;8.77;3.20;;;16.50;99.90;;;;;;5075396;28;20489;-74
2023/09/13 11:00:12;;;;;;;8.07;3.20;;;16.60;99.90;;;;;;5074098;28;20055;-74
2023/09/13 11:02:43;;;;;;;7.30;3.03;;;16.60;99.90;;;;;;5075317;28;20044;-75
2023/09/13 11:05:13;;;;;;;6.60;2.83;;;16.50;99.90;;;;;;5075306;28;20041;-75
2023/09/13 11:07:46;;;;;;;8.10;2.60;;;16.50;99.90;;;;;;5075167;28;20050;-73
2023/09/13 11:10:19;;;;;;;8.50;3.30;;;16.60;99.90;;;;;;5075076;28;20052;-72
2023/09/13 11:12:48;;;;;;;7.47;3.00;;;16.60;99.90;;;;;;5070608;28;20048;-72
2023/09/13 11:15:23;;;;;;;8.17;3.60;;;16.60;99.90;;;;;;5073591;28;20052;-73
2023/09/13 11:17:52;;;;;;;10.13;3.00;;;16.70;99.90;;;;;;5074146;28;20508;-73
2023/09/13 11:20:30;;;;;;;9.00;3.17;;;16.70;99.90;;;;;;5073144;28;20037;-72
2023/09/13 11:23:05;;;;;;;9.47;3.50;;;16.70;99.90;;;;;;5071703;28;20101;-74
2023/09/13 11:25:38;;;;;;;6.80;3.87;;;16.80;99.90;;;;;;5074214;28;20048;-76
2023/09/13 11:28:09;;;;;;;7.77;2.90;;;17.00;99.90;;;;;;5073922;28;20489;-77
2023/09/13 11:30:50;;;;;;;6.67;3.20;;;17.00;99.90;;;;;;5074336;28;20045;-76
2023/09/13 11:33:17;;;;;;;8.77;3.13;;;17.10;99.90;;;;;;5071367;28;20063;-73
2023/09/13 11:35:44;;;;;;;8.20;3.30;;;17.20;99.90;;;;;;5074248;28;20048;-72
2023/09/13 11:38:11;;;;;;;8.70;3.20;;;17.30;99.90;;;;;;5073927;28;20072;-72
2023/09/13 11:40:37;;;;;;;8.00;3.10;;;17.40;99.90;;;;;;5073939;28;20060;-72
2023/09/13 11:43:04;;;;;;;7.43;3.03;;;17.60;99.90;;;;;;5074483;28;20057;-71
2023/09/13 11:45:30;;;;;;;7.23;3.10;;;17.60;99.90;;;;;;5074322;28;20058;-71
2023/09/13 11:47:56;;;;;;;7.23;2.70;;;17.70;99.90;;;;;;5074577;28;20056;-71
2023/09/13 11:50:22;;;;;;;9.70;3.33;;;17.70;99.90;;;;;;5074152;28;20040;-71
2023/09/13 11:53:09;;;;;;;8.70;3.00;;;17.70;99.90;;;;;;5074478;28;20123;-72
2023/09/13 11:55:38;;;;;;;8.60;3.03;;;17.60;99.90;;;;;;5072990;28;20087;-72
2023/09/13 11:58:04;;;;;;;10.00;3.33;;;17.60;99.90;;;;;;5074171;28;20052;-72
2023/09/13 12:00:29;;;;;;;7.87;2.80;;;17.70;99.90;;;;;;5073842;28;20041;-72
2023/09/13 12:02:56;;;;;;;11.77;2.90;;;17.70;99.90;;;;;;5072819;28;20106;-72
2023/09/13 12:05:24;;;;;;;10.53;3.13;;;17.80;99.90;;;;;;5073765;28;20148;-72
2023/09/13 12:07:50;;;;;;;8.70;3.10;;;17.80;99.90;;;;;;5073942;28;20059;-67
2023/09/13 12:10:16;;;;;;;10.60;2.77;;;17.90;99.90;;;;;;5073983;28;20123;-72
2023/09/13 12:12:42;;;;;;;7.80;2.47;;;17.90;99.90;;;;;;5073580;28;20044;-72
2023/09/13 12:15:14;;;;;;;9.80;2.57;;;17.90;99.90;;;;;;5073804;28;20052;-72
2023/09/13 12:17:40;;;;;;;9.30;2.63;;;17.80;99.90;;;;;;5073506;28;20242;-73
2023/09/13 12:20:10;;;;;;;8.17;2.67;;;17.70;99.90;;;;;;5073679;28;20510;-75
2023/09/13 12:22:42;;;;;;;11.83;2.77;;;17.60;99.90;;;;;;5073388;28;20464;-73
2023/09/13 12:25:13;;;;;;;7.60;2.43;;;17.60;99.90;;;;;;5073790;28;20427;-72
2023/09/13 12:27:39;;;;;;;5.87;1.83;;;17.60;99.90;;;;;;5072244;28;20040;-72
2023/09/13 12:30:07;;;;;;;4.37;1.77;;;17.60;99.90;;;;;;5073713;28;20443;-74
2023/09/13 12:32:33;;;;;;;6.30;1.80;;;17.50;99.90;;;;;;5072055;28;20040;-73
2023/09/13 12:34:59;;;;;;;5.03;2.00;;;17.40;99.90;;;;;;5073722;28;20396;-73
2023/09/13 12:37:25;;;;;;;6.40;2.60;;;17.40;99.90;;;;;;5071996;28;20059;-73
2023/09/13 12:39:51;;;;;;;8.20;2.50;;;17.40;99.90;;;;;;5073440;28;20053;-74
2023/09/13 12:42:18;;;;;;;10.67;2.70;;;17.40;99.90;;;;;;5073300;28;20094;-73